sensor_id;sensor_type;location;lat;lon;timestamp;pressure;altitude;pressure_sealevel;temperature;humidity
9281;BME280;4679;47.966;7.958;2023-05-19T06:47:52;97400.09;;;12.53;71.40
9281;BME280;4679;47.966;7.958;2023-05-19T06:49:55;97400.47;;;12.61;71.03
9281;BME280;4679;47.966;7.958;2023-05-19T06:51:56;97407.97;;;12.64;70.43
9281;BME280;4679;47.966;7.958;2023-05-19T06:53:58;97400.03;;;12.69;70.64
9281;BME280;4679;47.966;7.958;2023-05-19T06:55:59;97401.19;;;12.79;70.23
9281;BME280;4679;47.966;7.958;2023-05-19T06:58:01;97399.69;;;12.88;70.36
9281;BME280;4679;47.966;7.958;2023-05-19T07:00:06;97395.81;;;13.00;69.65
9281;BME280;4679;47.966;7.958;2023-05-19T07:02:09;97401.19;;;13.06;69.11
9281;BME280;4679;47.966;7.958;2023-05-19T07:04:12;97405.78;;;13.10;69.19
9281;BME280;4679;47.966;7.958;2023-05-19T07:06:14;97397.84;;;13.15;68.92
9281;BME280;4679;47.966;7.958;2023-05-19T07:08:15;97407.50;;;13.21;68.51
9281;BME280;4679;47.966;7.958;2023-05-19T07:10:17;97405.41;;;13.23;68.42
9281;BME280;4679;47.966;7.958;2023-05-19T07:12:20;97400.13;;;13.28;68.07
9281;BME280;4679;47.966;7.958;2023-05-19T07:14:22;97401.00;;;13.39;67.91
9281;BME280;4679;47.966;7.958;2023-05-19T07:16:24;97405.56;;;13.44;67.54
9281;BME280;4679;47.966;7.958;2023-05-19T07:18:25;97389.91;;;13.52;67.27
9281;BME280;4679;47.966;7.958;2023-05-19T07:20:32;97392.09;;;13.60;66.82
9281;BME280;4679;47.966;7.958;2023-05-19T07:22:33;97390.28;;;13.66;66.71
9281;BME280;4679;47.966;7.958;2023-05-19T07:24:35;97391.66;;;13.73;66.36
9281;BME280;4679;47.966;7.958;2023-05-19T07:26:37;97390.13;;;13.83;65.97
9281;BME280;4679;47.966;7.958;2023-05-19T07:28:39;97382.66;;;13.85;65.68
9281;BME280;4679;47.966;7.958;2023-05-19T07:30:42;97382.97;;;13.93;65.12
9281;BME280;4679;47.966;7.958;2023-05-19T07:32:43;97375.03;;;14.03;64.78
9281;BME280;4679;47.966;7.958;2023-05-19T07:34:45;97376.09;;;14.02;64.62
9281;BME280;4679;47.966;7.958;2023-05-19T07:36:48;97375.38;;;14.17;64.70
9281;BME280;4679;47.966;7.958;2023-05-19T07:38:50;97369.81;;;14.29;63.90
9281;BME280;4679;47.966;7.958;2023-05-19T07:40:52;97367.72;;;14.36;64.00
9281;BME280;4679;47.966;7.958;2023-05-19T07:42:54;97371.47;;;14.40;63.93
9281;BME280;4679;47.966;7.958;2023-05-19T07:44:55;97368.88;;;14.50;63.20
9281;BME280;4679;47.966;7.958;2023-05-19T07:46:57;97363.22;;;14.52;62.78
9281;BME280;4679;47.966;7.958;2023-05-19T07:48:59;97356.84;;;14.58;62.90
9281;BME280;4679;47.966;7.958;2023-05-19T07:51:01;97357.69;;;14.73;62.68
9281;BME280;4679;47.966;7.958;2023-05-19T07:53:04;97356.09;;;14.83;61.54
9281;BME280;4679;47.966;7.958;2023-05-19T07:55:06;97359.59;;;14.88;61.53
9281;BME280;4679;47.966;7.958;2023-05-19T07:57:07;97357.19;;;14.87;61.22
9281;BME280;4679;47.966;7.958;2023-05-19T07:59:09;97346.50;;;14.92;60.71
9281;BME280;4679;47.966;7.958;2023-05-19T08:01:11;97349.19;;;15.07;60.45
9281;BME280;4679;47.966;7.958;2023-05-19T08:03:12;97352.41;;;15.24;59.97
9281;BME280;4679;47.966;7.958;2023-05-19T08:05:16;97358.31;;;15.41;58.90
9281;BME280;4679;47.966;7.958;2023-05-19T08:07:18;97348.91;;;15.44;59.19
9281;BME280;4679;47.966;7.958;2023-05-19T08:09:21;97345.97;;;15.51;58.92
9281;BME280;4679;47.966;7.958;2023-05-19T08:11:23;97350.25;;;15.46;59.40
9281;BME280;4679;47.966;7.958;2023-05-19T08:13:25;97338.50;;;15.37;59.13
9281;BME280;4679;47.966;7.958;2023-05-19T08:15:26;97346.00;;;15.25;59.73
9281;BME280;4679;47.966;7.958;2023-05-19T08:17:28;97343.06;;;15.22;59.85
9281;BME280;4679;47.966;7.958;2023-05-19T08:19:30;97341.19;;;15.17;59.42
9281;BME280;4679;47.966;7.958;2023-05-19T08:21:31;97337.97;;;15.20;58.89
9281;BME280;4679;47.966;7.958;2023-05-19T08:23:33;97339.59;;;15.26;58.87
9281;BME280;4679;47.966;7.958;2023-05-19T08:25:37;97335.28;;;15.30;58.79
9281;BME280;4679;47.966;7.958;2023-05-19T08:27:40;97338.53;;;15.27;58.47
9281;BME280;4679;47.966;7.958;2023-05-19T08:29:41;97339.84;;;15.30;59.23
9281;BME280;4679;47.966;7.958;2023-05-19T08:31:43;97342.50;;;15.45;58.32
9281;BME280;4679;47.966;7.958;2023-05-19T08:33:45;97343.56;;;15.79;57.56
9281;BME280;4679;47.966;7.958;2023-05-19T08:35:46;97336.81;;;15.92;57.79
9281;BME280;4679;47.966;7.958;2023-05-19T08:37:48;97342.50;;;15.60;57.43
9281;BME280;4679;47.966;7.958;2023-05-19T08:39:50;97332.63;;;15.40;58.04
9281;BME280;4679;47.966;7.958;2023-05-19T08:41:53;97329.16;;;15.30;57.98
9281;BME280;4679;47.966;7.958;2023-05-19T08:43:54;97329.69;;;15.27;58.10
9281;BME280;4679;47.966;7.958;2023-05-19T08:45:58;97328.34;;;15.29;57.91
9281;BME280;4679;47.966;7.958;2023-05-19T08:48:00;97336.38;;;15.34;57.50
9281;BME280;4679;47.966;7.958;2023-05-19T08:50:04;97335.31;;;15.40;57.75
9281;BME280;4679;47.966;7.958;2023-05-19T08:52:16;97337.97;;;15.40;57.75
9281;BME280;4679;47.966;7.958;2023-05-19T08:54:23;97340.91;;;15.34;57.98
9281;BME280;4679;47.966;7.958;2023-05-19T08:56:25;97340.09;;;15.33;57.64
9281;BME280;4679;47.966;7.958;2023-05-19T08:58:29;97336.91;;;15.31;57.36
9281;BME280;4679;47.966;7.958;2023-05-19T09:00:32;97340.09;;;15.33;57.80
9281;BME280;4679;47.966;7.958;2023-05-19T09:02:35;97336.38;;;15.34;57.71
9281;BME280;4679;47.966;7.958;2023-05-19T09:04:38;97329.94;;;15.35;57.71
9281;BME280;4679;47.966;7.958;2023-05-19T09:06:40;97332.63;;;15.40;57.41
9281;BME280;4679;47.966;7.958;2023-05-19T09:08:44;97334.75;;;15.43;57.83
9281;BME280;4679;47.966;7.958;2023-05-19T09:10:46;97339.03;;;15.49;57.26
9281;BME280;4679;47.966;7.958;2023-05-19T09:12:48;97338.50;;;15.47;57.51
9281;BME280;4679;47.966;7.958;2023-05-19T09:14:52;97336.63;;;15.48;57.34
9281;BME280;4679;47.966;7.958;2023-05-19T09:16:54;97330.75;;;15.61;57.27
9281;BME280;4679;47.966;7.958;2023-05-19T09:18:56;97333.41;;;15.66;56.83
9281;BME280;4679;47.966;7.958;2023-05-19T09:20:59;97328.34;;;15.65;57.10
9281;BME280;4679;47.966;7.958;2023-05-19T09:23:01;97332.63;;;15.61;56.28
9281;BME280;4679;47.966;7.958;2023-05-19T09:25:03;97323.53;;;15.67;56.49
9281;BME280;4679;47.966;7.958;2023-05-19T09:27:05;97327.81;;;15.63;56.98
9281;BME280;4679;47.966;7.958;2023-05-19T09:29:11;97331.53;;;15.52;56.82
9281;BME280;4679;47.966;7.958;2023-05-19T09:31:14;97322.44;;;15.47;56.67
9281;BME280;4679;47.966;7.958;2023-05-19T09:33:16;97326.19;;;15.46;57.12
9281;BME280;4679;47.966;7.958;2023-05-19T09:35:19;97326.44;;;15.45;57.21
9281;BME280;4679;47.966;7.958;2023-05-19T09:37:22;97335.84;;;15.37;57.18
9281;BME280;4679;47.966;7.958;2023-05-19T09:39:24;97329.97;;;15.40;57.26
9281;BME280;4679;47.966;7.958;2023-05-19T09:41:28;97328.34;;;15.49;57.29
9281;BME280;4679;47.966;7.958;2023-05-19T09:43:31;97330.78;;;15.56;56.65
9281;BME280;4679;47.966;7.958;2023-05-19T09:45:33;97320.31;;;15.55;56.30
9281;BME280;4679;47.966;7.958;2023-05-19T09:47:36;97323.00;;;15.60;56.68
9281;BME280;4679;47.966;7.958;2023-05-19T09:49:44;97317.38;;;15.61;56.69
9281;BME280;4679;47.966;7.958;2023-05-19T09:51:50;97321.91;;;15.66;56.80
9281;BME280;4679;47.966;7.958;2023-05-19T09:53:52;97320.31;;;15.65;56.62
9281;BME280;4679;47.966;7.958;2023-05-19T09:55:54;97317.63;;;15.70;56.31
9281;BME280;4679;47.966;7.958;2023-05-19T09:57:57;97316.53;;;15.76;56.56
9281;BME280;4679;47.966;7.958;2023-05-19T10:00:04;97318.13;;;15.77;56.64
9281;BME280;4679;47.966;7.958;2023-05-19T10:02:15;97321.63;;;15.77;56.68
9281;BME280;4679;47.966;7.958;2023-05-19T10:04:19;97322.41;;;15.78;56.01
9281;BME280;4679;47.966;7.958;2023-05-19T10:06:22;97322.41;;;15.78;56.50
9281;BME280;4679;47.966;7.958;2023-05-19T10:08:24;97324.03;;;15.74;56.68
9281;BME280;4679;47.966;7.958;2023-05-19T10:10:27;97319.78;;;15.73;56.78
9281;BME280;4679;47.966;7.958;2023-05-19T10:12:30;97314.97;;;15.70;56.37
9281;BME280;4679;47.966;7.958;2023-05-19T10:14:32;97321.66;;;15.62;56.00
9281;BME280;4679;47.966;7.958;2023-05-19T10:16:35;97325.66;;;15.60;56.39
9281;BME280;4679;47.966;7.958;2023-05-19T10:18:36;97331.56;;;15.57;56.51
9281;BME280;4679;47.966;7.958;2023-05-19T10:20:40;97319.78;;;15.53;56.65
9281;BME280;4679;47.966;7.958;2023-05-19T10:22:43;97324.31;;;15.52;56.07
9281;BME280;4679;47.966;7.958;2023-05-19T10:24:45;97326.72;;;15.48;56.32
9281;BME280;4679;47.966;7.958;2023-05-19T10:26:49;97316.03;;;15.43;56.31
9281;BME280;4679;47.966;7.958;2023-05-19T10:28:53;97316.03;;;15.43;56.83
9281;BME280;4679;47.966;7.958;2023-05-19T10:30:58;97318.19;;;15.41;56.11
9281;BME280;4679;47.966;7.958;2023-05-19T10:33:02;97319.78;;;15.42;56.65
9281;BME280;4679;47.966;7.958;2023-05-19T10:35:23;97317.91;;;15.48;56.85
9281;BME280;4679;47.966;7.958;2023-05-19T10:37:35;97320.31;;;15.55;56.18
9281;BME280;4679;47.966;7.958;2023-05-19T10:39:40;97319.28;;;15.56;56.44
9281;BME280;4679;47.966;7.958;2023-05-19T10:41:49;97318.72;;;15.59;55.93
9281;BME280;4679;47.966;7.958;2023-05-19T10:44:01;97314.44;;;15.63;56.26
9281;BME280;4679;47.966;7.958;2023-05-19T10:46:09;97311.75;;;15.68;56.59
9281;BME280;4679;47.966;7.958;2023-05-19T10:48:12;97315.22;;;15.73;56.72
9281;BME280;4679;47.966;7.958;2023-05-19T10:50:14;97307.16;;;15.78;56.07
9281;BME280;4679;47.966;7.958;2023-05-19T10:52:20;97318.41;;;15.86;55.90
9281;BME280;4679;47.966;7.958;2023-05-19T10:54:42;97306.09;;;15.85;56.19
9281;BME280;4679;47.966;7.958;2023-05-19T10:56:46;97324.28;;;15.77;56.39
9281;BME280;4679;47.966;7.958;2023-05-19T10:58:48;97316.25;;;15.82;55.92
9281;BME280;4679;47.966;7.958;2023-05-19T11:00:59;97314.38;;;15.88;56.26
9281;BME280;4679;47.966;7.958;2023-05-19T11:03:11;97319.44;;;15.90;56.30
9281;BME280;4679;47.966;7.958;2023-05-19T11:05:14;97310.06;;;15.92;56.26
9281;BME280;4679;47.966;7.958;2023-05-19T11:07:18;97307.16;;;15.89;55.61
9281;BME280;4679;47.966;7.958;2023-05-19T11:09:21;97311.72;;;15.83;55.81
9281;BME280;4679;47.966;7.958;2023-05-19T11:11:43;97313.59;;;15.82;55.58
9281;BME280;4679;47.966;7.958;2023-05-19T11:13:47;97314.38;;;15.83;56.17
9281;BME280;4679;47.966;7.958;2023-05-19T11:15:50;97319.75;;;15.83;55.68
9281;BME280;4679;47.966;7.958;2023-05-19T11:17:52;97316.53;;;15.86;55.59
9281;BME280;4679;47.966;7.958;2023-05-19T11:19:56;97315.41;;;15.92;55.65
9281;BME280;4679;47.966;7.958;2023-05-19T11:22:07;97313.00;;;15.91;55.53
9281;BME280;4679;47.966;7.958;2023-05-19T11:24:09;97318.13;;;15.87;55.92
9281;BME280;4679;47.966;7.958;2023-05-19T11:26:11;97313.00;;;15.91;55.98
9281;BME280;4679;47.966;7.958;2023-05-19T11:28:17;97311.41;;;15.90;56.02
9281;BME280;4679;47.966;7.958;2023-05-19T11:30:32;97313.81;;;15.91;55.37
9281;BME280;4679;47.966;7.958;2023-05-19T11:32:34;97316.78;;;15.85;55.55
9281;BME280;4679;47.966;7.958;2023-05-19T11:34:39;97317.59;;;15.85;55.42
9281;BME280;4679;47.966;7.958;2023-05-19T11:36:41;97307.13;;;15.94;55.43
9281;BME280;4679;47.966;7.958;2023-05-19T11:38:45;97310.06;;;15.97;55.59
9281;BME280;4679;47.966;7.958;2023-05-19T11:40:48;97312.19;;;16.00;56.28
9281;BME280;4679;47.966;7.958;2023-05-19T11:42:50;97308.41;;;16.06;55.67
9281;BME280;4679;47.966;7.958;2023-05-19T11:44:54;97306.78;;;16.10;54.97
9281;BME280;4679;47.966;7.958;2023-05-19T11:46:57;97315.63;;;16.06;54.94
9281;BME280;4679;47.966;7.958;2023-05-19T11:48:59;97309.78;;;16.04;55.30
9281;BME280;4679;47.966;7.958;2023-05-19T11:51:01;97305.72;;;16.06;55.26
9281;BME280;4679;47.966;7.958;2023-05-19T11:53:03;97297.44;;;16.08;55.02
9281;BME280;4679;47.966;7.958;2023-05-19T11:55:06;97299.28;;;16.12;55.17
9281;BME280;4679;47.966;7.958;2023-05-19T11:57:08;97302.22;;;16.16;55.07
9281;BME280;4679;47.966;7.958;2023-05-19T11:59:10;97300.03;;;16.23;55.16
9281;BME280;4679;47.966;7.958;2023-05-19T12:01:12;97296.53;;;16.28;54.66
9281;BME280;4679;47.966;7.958;2023-05-19T12:03:20;97297.59;;;16.32;54.78
9281;BME280;4679;47.966;7.958;2023-05-19T12:05:22;97298.13;;;16.34;54.96
9281;BME280;4679;47.966;7.958;2023-05-19T12:07:24;97306.94;;;16.39;54.66
9281;BME280;4679;47.966;7.958;2023-05-19T12:09:27;97300.50;;;16.40;54.62
9281;BME280;4679;47.966;7.958;2023-05-19T12:11:29;97303.44;;;16.39;55.22
9281;BME280;4679;47.966;7.958;2023-05-19T12:13:32;97304.25;;;16.39;55.05
9281;BME280;4679;47.966;7.958;2023-05-19T12:15:33;97299.16;;;16.38;54.57
9281;BME280;4679;47.966;7.958;2023-05-19T12:17:35;97300.50;;;16.35;55.35
9281;BME280;4679;47.966;7.958;2023-05-19T12:19:39;97300.56;;;16.25;54.75
9281;BME280;4679;47.966;7.958;2023-05-19T12:21:41;97305.44;;;16.18;55.38
9281;BME280;4679;47.966;7.958;2023-05-19T12:23:43;97300.34;;;16.16;54.92
9281;BME280;4679;47.966;7.958;2023-05-19T12:25:46;97301.16;;;16.17;55.16
9281;BME280;4679;47.966;7.958;2023-05-19T12:27:47;97293.94;;;16.12;55.04
9281;BME280;4679;47.966;7.958;2023-05-19T12:29:50;97300.09;;;16.13;54.86
9281;BME280;4679;47.966;7.958;2023-05-19T12:31:52;97300.03;;;16.23;54.42
9281;BME280;4679;47.966;7.958;2023-05-19T12:33:54;97300.56;;;16.25;54.38
9281;BME280;4679;47.966;7.958;2023-05-19T12:35:57;97300.81;;;16.29;54.21
9281;BME280;4679;47.966;7.958;2023-05-19T12:38:03;97298.09;;;16.39;54.25
9281;BME280;4679;47.966;7.958;2023-05-19T12:40:06;97300.75;;;16.44;54.17
9281;BME280;4679;47.966;7.958;2023-05-19T12:42:09;97297.00;;;16.40;54.20
9281;BME280;4679;47.966;7.958;2023-05-19T12:44:13;97298.94;;;16.34;54.45
9281;BME280;4679;47.966;7.958;2023-05-19T12:46:17;97295.47;;;16.34;54.47
9281;BME280;4679;47.966;7.958;2023-05-19T12:48:20;97302.38;;;16.35;54.34
9281;BME280;4679;47.966;7.958;2023-05-19T12:50:28;97290.91;;;16.34;54.82
9281;BME280;4679;47.966;7.958;2023-05-19T12:52:33;97296.25;;;16.34;54.24
9281;BME280;4679;47.966;7.958;2023-05-19T12:54:35;97294.94;;;16.32;55.03
9281;BME280;4679;47.966;7.958;2023-05-19T12:56:48;97296.00;;;16.31;54.64
9281;BME280;4679;47.966;7.958;2023-05-19T12:58:52;97299.22;;;16.33;54.59
9281;BME280;4679;47.966;7.958;2023-05-19T13:00:57;97300.50;;;16.35;54.52
9281;BME280;4679;47.966;7.958;2023-05-19T13:03:01;97293.28;;;16.36;54.75
9281;BME280;4679;47.966;7.958;2023-05-19T13:05:04;97294.34;;;16.40;55.02
9281;BME280;4679;47.966;7.958;2023-05-19T13:07:06;97290.59;;;16.41;54.88
9281;BME280;4679;47.966;7.958;2023-05-19T13:09:09;97288.19;;;16.39;54.63
9281;BME280;4679;47.966;7.958;2023-05-19T13:11:11;97289.53;;;16.37;54.54
9281;BME280;4679;47.966;7.958;2023-05-19T13:13:13;97288.22;;;16.34;54.68
9281;BME280;4679;47.966;7.958;2023-05-19T13:15:14;97279.38;;;16.34;54.41
9281;BME280;4679;47.966;7.958;2023-05-19T13:17:16;97277.75;;;16.38;54.56
9281;BME280;4679;47.966;7.958;2023-05-19T13:19:18;97278.81;;;16.37;55.05
9281;BME280;4679;47.966;7.958;2023-05-19T13:21:20;97281.22;;;16.38;55.04
9281;BME280;4679;47.966;7.958;2023-05-19T13:23:22;97280.94;;;16.40;54.54
9281;BME280;4679;47.966;7.958;2023-05-19T13:25:25;97286.03;;;16.36;54.77
9281;BME280;4679;47.966;7.958;2023-05-19T13:27:27;97280.19;;;16.34;55.11
9281;BME280;4679;47.966;7.958;2023-05-19T13:29:29;97276.97;;;16.32;54.72
9281;BME280;4679;47.966;7.958;2023-05-19T13:31:30;97276.72;;;16.34;54.81
9281;BME280;4679;47.966;7.958;2023-05-19T13:33:32;97273.50;;;16.32;55.18
9281;BME280;4679;47.966;7.958;2023-05-19T13:35:34;97274.03;;;16.34;55.19
9281;BME280;4679;47.966;7.958;2023-05-19T13:37:37;97273.50;;;16.32;54.75
9281;BME280;4679;47.966;7.958;2023-05-19T13:39:39;97278.34;;;16.30;54.91
9281;BME280;4679;47.966;7.958;2023-05-19T13:41:42;97272.44;;;16.28;54.79
9281;BME280;4679;47.966;7.958;2023-05-19T13:43:44;97282.09;;;16.24;55.58
9281;BME280;4679;47.966;7.958;2023-05-19T13:45:46;97275.19;;;16.17;55.13
9281;BME280;4679;47.966;7.958;2023-05-19T13:47:48;97272.78;;;16.16;55.10
9281;BME280;4679;47.966;7.958;2023-05-19T13:49:49;97279.47;;;16.13;55.14
9281;BME280;4679;47.966;7.958;2023-05-19T13:51:54;97277.88;;;16.12;54.92
9281;BME280;4679;47.966;7.958;2023-05-19T13:53:56;97282.44;;;16.12;55.59
9281;BME280;4679;47.966;7.958;2023-05-19T13:55:59;97277.06;;;16.12;55.18
9281;BME280;4679;47.966;7.958;2023-05-19T13:58:02;97276.28;;;16.11;55.60
9281;BME280;4679;47.966;7.958;2023-05-19T14:00:05;97279.75;;;16.12;55.16
9281;BME280;4679;47.966;7.958;2023-05-19T14:02:07;97285.09;;;16.12;55.08
9281;BME280;4679;47.966;7.958;2023-05-19T14:04:09;97282.44;;;16.12;55.64
9281;BME280;4679;47.966;7.958;2023-05-19T14:06:11;97283.78;;;16.09;55.58
9281;BME280;4679;47.966;7.958;2023-05-19T14:08:13;97294.75;;;16.08;55.71
9281;BME280;4679;47.966;7.958;2023-05-19T14:10:15;97291.81;;;16.04;55.52
9281;BME280;4679;47.966;7.958;2023-05-19T14:12:17;97294.78;;;16.03;55.69
9281;BME280;4679;47.966;7.958;2023-05-19T14:14:20;97290.00;;;15.95;55.85
9281;BME280;4679;47.966;7.958;2023-05-19T14:16:22;97288.66;;;15.92;55.84
9281;BME280;4679;47.966;7.958;2023-05-19T14:18:25;97288.16;;;15.85;56.09
9281;BME280;4679;47.966;7.958;2023-05-19T14:20:27;97294.59;;;15.79;56.84
9281;BME280;4679;47.966;7.958;2023-05-19T14:22:29;97297.81;;;15.81;56.07
9281;BME280;4679;47.966;7.958;2023-05-19T14:24:30;97298.34;;;15.78;56.29
9281;BME280;4679;47.966;7.958;2023-05-19T14:26:32;97295.69;;;15.73;56.91
9281;BME280;4679;47.966;7.958;2023-05-19T14:28:34;97295.16;;;15.66;56.89
9281;BME280;4679;47.966;7.958;2023-05-19T14:30:37;97290.34;;;15.68;56.52
9281;BME280;4679;47.966;7.958;2023-05-19T14:32:38;97295.97;;;15.66;57.12
9281;BME280;4679;47.966;7.958;2023-05-19T14:34:40;97302.13;;;15.62;56.83
9281;BME280;4679;47.966;7.958;2023-05-19T14:36:42;97294.63;;;15.59;57.25
9281;BME280;4679;47.966;7.958;2023-05-19T14:38:44;97296.00;;;15.56;56.57
9281;BME280;4679;47.966;7.958;2023-05-19T14:40:45;97295.72;;;15.58;56.76
9281;BME280;4679;47.966;7.958;2023-05-19T14:42:47;97295.97;;;15.61;57.16
9281;BME280;4679;47.966;7.958;2023-05-19T14:44:49;97294.63;;;15.64;56.92
9281;BME280;4679;47.966;7.958;2023-05-19T14:46:52;97290.88;;;15.60;57.10
9281;BME280;4679;47.966;7.958;2023-05-19T14:48:54;97291.97;;;15.59;57.08
9281;BME280;4679;47.966;7.958;2023-05-19T14:50:55;97291.97;;;15.59;56.87
9281;BME280;4679;47.966;7.958;2023-05-19T14:52:57;97291.44;;;15.52;57.21
9281;BME280;4679;47.966;7.958;2023-05-19T14:54:59;97290.34;;;15.53;57.63
9281;BME280;4679;47.966;7.958;2023-05-19T14:57:00;97296.50;;;15.53;57.12
9281;BME280;4679;47.966;7.958;2023-05-19T14:59:02;97293.03;;;15.53;57.12
9281;BME280;4679;47.966;7.958;2023-05-19T15:01:04;97293.28;;;15.46;57.03
9281;BME280;4679;47.966;7.958;2023-05-19T15:03:07;97299.19;;;15.43;57.72
9281;BME280;4679;47.966;7.958;2023-05-19T15:05:09;97303.75;;;15.42;57.40
9281;BME280;4679;47.966;7.958;2023-05-19T15:07:11;97300.81;;;15.39;57.87
9281;BME280;4679;47.966;7.958;2023-05-19T15:09:13;97294.94;;;15.37;57.46
9281;BME280;4679;47.966;7.958;2023-05-19T15:11:15;97295.19;;;15.35;57.58
9281;BME280;4679;47.966;7.958;2023-05-19T15:13:16;97294.38;;;15.35;58.04
9281;BME280;4679;47.966;7.958;2023-05-19T15:15:18;97295.19;;;15.35;57.39
9281;BME280;4679;47.966;7.958;2023-05-19T15:17:19;97296.78;;;15.36;57.57
9281;BME280;4679;47.966;7.958;2023-05-19T15:19:22;97297.59;;;15.37;57.46
9281;BME280;4679;47.966;7.958;2023-05-19T15:21:24;97291.44;;;15.36;57.69
9281;BME280;4679;47.966;7.958;2023-05-19T15:23:26;97300.28;;;15.37;57.60
9281;BME280;4679;47.966;7.958;2023-05-19T15:25:27;97300.53;;;15.35;57.37
9281;BME280;4679;47.966;7.958;2023-05-19T15:27:30;97300.28;;;15.37;58.07
9281;BME280;4679;47.966;7.958;2023-05-19T15:29:31;97298.94;;;15.39;57.57
9281;BME280;4679;47.966;7.958;2023-05-19T15:31:33;97301.34;;;15.36;57.80
9281;BME280;4679;47.966;7.958;2023-05-19T15:33:35;97303.22;;;15.30;57.84
9281;BME280;4679;47.966;7.958;2023-05-19T15:35:38;97297.88;;;15.25;57.70
9281;BME280;4679;47.966;7.958;2023-05-19T15:37:40;97305.91;;;15.25;57.80
9281;BME280;4679;47.966;7.958;2023-05-19T15:39:41;97311.25;;;15.25;57.96
9281;BME280;4679;47.966;7.958;2023-05-19T15:41:43;97312.84;;;15.21;58.05
9281;BME280;4679;47.966;7.958;2023-05-19T15:43:45;97309.63;;;15.14;58.38
9281;BME280;4679;47.966;7.958;2023-05-19T15:45:46;97313.94;;;15.10;58.05
9281;BME280;4679;47.966;7.958;2023-05-19T15:47:51;97312.06;;;15.10;58.24
9281;BME280;4679;47.966;7.958;2023-05-19T15:49:53;97312.88;;;15.11;57.97
9281;BME280;4679;47.966;7.958;2023-05-19T15:51:56;97308.56;;;15.05;58.55
9281;BME280;4679;47.966;7.958;2023-05-19T15:53:58;97320.84;;;15.01;58.22
9281;BME280;4679;47.966;7.958;2023-05-19T15:55:59;97314.16;;;14.98;58.15
9281;BME280;4679;47.966;7.958;2023-05-19T15:58:01;97316.59;;;14.95;58.69
9281;BME280;4679;47.966;7.958;2023-05-19T16:00:03;97316.59;;;14.95;58.84
9281;BME280;4679;47.966;7.958;2023-05-19T16:02:06;97315.50;;;14.91;58.50
9281;BME280;4679;47.966;7.958;2023-05-19T16:04:08;97313.09;;;14.89;58.73
9281;BME280;4679;47.966;7.958;2023-05-19T16:06:09;97314.19;;;14.88;59.02
9281;BME280;4679;47.966;7.958;2023-05-19T16:08:12;97311.22;;;14.85;59.10
9281;BME280;4679;47.966;7.958;2023-05-19T16:10:14;97321.38;;;14.83;59.08
9281;BME280;4679;47.966;7.958;2023-05-19T16:12:16;97318.69;;;14.83;58.74
9281;BME280;4679;47.966;7.958;2023-05-19T16:14:17;97317.63;;;14.84;58.75
9281;BME280;4679;47.966;7.958;2023-05-19T16:16:19;97314.72;;;14.80;58.56
9281;BME280;4679;47.966;7.958;2023-05-19T16:18:21;97314.97;;;14.78;58.63
9281;BME280;4679;47.966;7.958;2023-05-19T16:20:23;97309.91;;;14.77;59.22
9281;BME280;4679;47.966;7.958;2023-05-19T16:22:27;97315.50;;;14.75;59.12
9281;BME280;4679;47.966;7.958;2023-05-19T16:24:31;97311.75;;;14.76;59.14
9281;BME280;4679;47.966;7.958;2023-05-19T16:26:32;97310.41;;;14.74;59.14
9281;BME280;4679;47.966;7.958;2023-05-19T16:28:34;97317.34;;;14.70;58.90
9281;BME280;4679;47.966;7.958;2023-05-19T16:30:36;97312.00;;;14.70;59.32
9281;BME280;4679;47.966;7.958;2023-05-19T16:32:38;97309.09;;;14.66;59.18
9281;BME280;4679;47.966;7.958;2023-05-19T16:34:40;97309.84;;;14.67;58.88
9281;BME280;4679;47.966;7.958;2023-05-19T16:36:41;97313.06;;;14.69;58.71
9281;BME280;4679;47.966;7.958;2023-05-19T16:38:43;97312.28;;;14.68;58.84
9281;BME280;4679;47.966;7.958;2023-05-19T16:40:46;97313.63;;;14.66;59.06
9281;BME280;4679;47.966;7.958;2023-05-19T16:42:47;97306.94;;;14.63;59.26
9281;BME280;4679;47.966;7.958;2023-05-19T16:44:49;97312.03;;;14.65;59.19
9281;BME280;4679;47.966;7.958;2023-05-19T16:46:51;97305.63;;;14.66;59.28
9281;BME280;4679;47.966;7.958;2023-05-19T16:48:52;97309.59;;;14.63;59.11
9281;BME280;4679;47.966;7.958;2023-05-19T16:50:54;97311.19;;;14.59;59.41
9281;BME280;4679;47.966;7.958;2023-05-19T16:52:55;97315.72;;;14.59;59.42
9281;BME280;4679;47.966;7.958;2023-05-19T16:54:57;97309.31;;;14.55;59.52
9281;BME280;4679;47.966;7.958;2023-05-19T16:57:00;97310.94;;;14.51;59.37
9281;BME280;4679;47.966;7.958;2023-05-19T16:59:02;97310.13;;;14.50;58.84
9281;BME280;4679;47.966;7.958;2023-05-19T17:01:04;97305.31;;;14.47;59.36
9281;BME280;4679;47.966;7.958;2023-05-19T17:03:06;97304.75;;;14.45;59.53
9281;BME280;4679;47.966;7.958;2023-05-19T17:05:08;97302.34;;;14.43;59.31
9281;BME280;4679;47.966;7.958;2023-05-19T17:07:11;97304.75;;;14.45;59.43
9281;BME280;4679;47.966;7.958;2023-05-19T17:09:14;97305.84;;;14.49;59.26
9281;BME280;4679;47.966;7.958;2023-05-19T17:11:16;97308.25;;;14.51;59.10
9281;BME280;4679;47.966;7.958;2023-05-19T17:13:19;97307.97;;;14.52;58.99
9281;BME280;4679;47.966;7.958;2023-05-19T17:15:21;97309.56;;;14.53;59.19
9281;BME280;4679;47.966;7.958;2023-05-19T17:17:22;97307.97;;;14.52;59.29
9281;BME280;4679;47.966;7.958;2023-05-19T17:19:24;97306.91;;;14.48;59.08
9281;BME280;4679;47.966;7.958;2023-05-19T17:21:26;97299.69;;;14.43;59.13
9281;BME280;4679;47.966;7.958;2023-05-19T17:23:28;97299.69;;;14.43;58.91
9281;BME280;4679;47.966;7.958;2023-05-19T17:25:31;97300.47;;;14.44;59.42
9281;BME280;4679;47.966;7.958;2023-05-19T17:27:33;97302.88;;;14.46;58.89
9281;BME280;4679;47.966;7.958;2023-05-19T17:29:36;97306.63;;;14.45;58.99
9281;BME280;4679;47.966;7.958;2023-05-19T17:31:38;97302.88;;;14.40;59.06
9281;BME280;4679;47.966;7.958;2023-05-19T17:33:40;97299.41;;;14.40;58.85
9281;BME280;4679;47.966;7.958;2023-05-19T17:35:42;97301.00;;;14.41;59.11
9281;BME280;4679;47.966;7.958;2023-05-19T17:37:44;97304.75;;;14.40;58.91
9281;BME280;4679;47.966;7.958;2023-05-19T17:39:45;97307.91;;;14.37;58.87
9281;BME280;4679;47.966;7.958;2023-05-19T17:41:47;97302.03;;;14.35;59.29
9281;BME280;4679;47.966;7.958;2023-05-19T17:43:49;97302.03;;;14.35;59.09
9281;BME280;4679;47.966;7.958;2023-05-19T17:45:52;97303.06;;;14.29;59.05
9281;BME280;4679;47.966;7.958;2023-05-19T17:47:54;97296.66;;;14.25;59.09
9281;BME280;4679;47.966;7.958;2023-05-19T17:49:55;97308.66;;;14.22;58.82
9281;BME280;4679;47.966;7.958;2023-05-19T17:51:57;97306.25;;;14.21;58.90
9281;BME280;4679;47.966;7.958;2023-05-19T17:54:00;97299.84;;;14.17;58.77
9281;BME280;4679;47.966;7.958;2023-05-19T17:56:03;97302.50;;;14.17;58.78